Aurora, New Mexico
Current Conditions -  °F | °C
As of 9:53 PM on Sunday 19 Oct 2014 (Local Time) from KLVS Reporting Station
Clear Clear  
Wind Chill: 42°   Ceiling: Unl
Heat Index: 48°   Visibility: 10mi
Dew Point: 42°   Wind: 14mph
Humidity: 80%   Direction: 20°NNE
Pressure: 30.2"   Gusts: NA
Location:  36.0243°N, 105.005°W
Report Text: KLVS 200353Z AUTO 02012KT 10SM CLR 09/06 A3020 RMK AO2 SLP161 T00890056
Loading
Personal Weather Stations






























Interactive Weather Map
Tropical Storm Tracking
New forecast layout! Learn more

10-Day Weather Forecast

Advertisements
Track Severe Weather on mobile